createdAt,value
2023-03-11T00:00:57.271Z,-0.32
2023-03-11T00:03:25.836Z,-0.40
2023-03-11T00:05:55.988Z,-0.39
2023-03-11T00:08:25.793Z,-0.38
2023-03-11T00:10:56.750Z,-0.42
2023-03-11T00:13:27.776Z,-0.49
2023-03-11T00:15:57.081Z,-0.47
2023-03-11T00:18:27.297Z,-0.51
2023-03-11T00:20:59.012Z,-0.46
2023-03-11T00:23:28.744Z,-0.44
2023-03-11T00:26:03.244Z,-0.47
2023-03-11T00:28:34.111Z,-0.54
2023-03-11T00:31:06.088Z,-0.51
2023-03-11T00:33:34.283Z,-0.52
2023-03-11T00:36:07.037Z,-0.56
2023-03-11T00:38:35.171Z,-0.61
2023-03-11T00:41:04.805Z,-0.59
2023-03-11T00:43:32.863Z,-0.66
2023-03-11T00:46:00.915Z,-0.63
2023-03-11T00:48:29.122Z,-0.68
2023-03-11T00:50:57.192Z,-0.70
2023-03-11T00:53:25.517Z,-0.63
2023-03-11T00:55:53.595Z,-0.61
2023-03-11T00:58:27.445Z,-0.62
2023-03-11T01:00:55.563Z,-0.67
2023-03-11T01:03:25.973Z,-0.68
2023-03-11T01:05:54.035Z,-0.78
2023-03-11T01:08:22.041Z,-0.84
2023-03-11T01:10:50.158Z,-0.84
2023-03-11T01:13:18.323Z,-0.82
2023-03-11T01:15:47.975Z,-0.78
2023-03-11T01:18:16.687Z,-0.85
2023-03-11T01:20:44.948Z,-0.88
2023-03-11T01:23:13.906Z,-0.89
2023-03-11T01:25:42.058Z,-0.93
2023-03-11T01:28:10.730Z,-0.93
2023-03-11T01:30:41.223Z,-1.00
2023-03-11T01:33:16.230Z,-0.91
2023-03-11T01:35:44.572Z,-0.91
2023-03-11T01:38:13.286Z,-0.97
2023-03-11T01:40:44.172Z,-0.96
2023-03-11T01:43:41.859Z,-1.05
2023-03-11T01:46:15.706Z,-1.06
2023-03-11T01:48:47.888Z,-1.09
2023-03-11T01:51:18.700Z,-1.12
2023-03-11T01:53:47.362Z,-1.09
2023-03-11T01:56:18.710Z,-1.12
2023-03-11T01:58:50.145Z,-1.18
2023-03-11T02:01:18.378Z,-1.18
2023-03-11T02:03:48.108Z,-1.18
2023-03-11T02:06:19.437Z,-1.21
2023-03-11T02:08:48.304Z,-1.23
2023-03-11T02:11:20.596Z,-1.24
2023-03-11T02:13:52.463Z,-1.22
2023-03-11T02:16:20.665Z,-1.27
2023-03-11T02:18:53.237Z,-1.26
2023-03-11T02:21:26.588Z,-1.22
2023-03-11T02:24:01.063Z,-1.28
2023-03-11T02:26:34.508Z,-1.34
2023-03-11T02:29:07.354Z,-1.38
2023-03-11T02:31:37.953Z,-1.39
2023-03-11T02:34:13.027Z,-1.42
2023-03-11T02:36:43.118Z,-1.42
2023-03-11T02:39:11.519Z,-1.45
2023-03-11T02:41:42.816Z,-1.53
2023-03-11T02:44:14.947Z,-1.55
2023-03-11T02:46:44.469Z,-1.56
2023-03-11T02:49:13.195Z,-1.59
2023-03-11T02:51:41.329Z,-1.59
2023-03-11T02:54:09.525Z,-1.63
2023-03-11T02:56:37.693Z,-1.62
2023-03-11T02:59:06.221Z,-1.60
2023-03-11T03:01:35.639Z,-1.66
2023-03-11T03:04:04.001Z,-1.64
2023-03-11T03:06:32.145Z,-1.63
2023-03-11T03:09:00.247Z,-1.63
2023-03-11T03:11:28.560Z,-1.67
2023-03-11T03:13:56.654Z,-1.68
2023-03-11T03:16:27.906Z,-1.70
2023-03-11T03:18:57.472Z,-1.73
2023-03-11T03:21:25.624Z,-1.66
2023-03-11T03:23:53.649Z,-1.61
2023-03-11T03:26:21.739Z,-1.64
2023-03-11T03:28:49.789Z,-1.69
2023-03-11T03:31:18.274Z,-1.64
2023-03-11T03:33:46.598Z,-1.60
2023-03-11T03:36:16.722Z,-1.66
2023-03-11T03:38:45.002Z,-1.74
2023-03-11T03:41:15.671Z,-1.80
2023-03-11T03:43:43.987Z,-1.79
2023-03-11T03:46:12.166Z,-1.76
2023-03-11T03:48:43.185Z,-1.74
2023-03-11T03:51:12.748Z,-1.77
2023-03-11T03:53:42.714Z,-1.73
2023-03-11T03:56:13.927Z,-1.76
2023-03-11T03:58:42.132Z,-1.75
2023-03-11T04:01:11.951Z,-1.66
2023-03-11T04:03:40.570Z,-1.62
2023-03-11T04:06:11.375Z,-1.63
2023-03-11T04:08:40.792Z,-1.68
2023-03-11T04:11:10.202Z,-1.73
2023-03-11T04:13:38.389Z,-1.76
2023-03-11T04:16:07.390Z,-1.77
2023-03-11T04:18:35.516Z,-1.76
2023-03-11T04:21:06.524Z,-1.79
2023-03-11T04:23:34.927Z,-1.83
2023-03-11T04:26:03.144Z,-1.88
2023-03-11T04:28:35.646Z,-1.92
2023-03-11T04:31:03.887Z,-1.96
2023-03-11T04:33:32.296Z,-1.96
2023-03-11T04:36:00.698Z,-1.95
2023-03-11T04:38:28.730Z,-1.96
2023-03-11T04:41:01.336Z,-1.96
2023-03-11T04:43:30.308Z,-1.97
2023-03-11T04:45:59.921Z,-2.01
2023-03-11T04:48:28.381Z,-2.01
2023-03-11T04:50:56.690Z,-2.03
2023-03-11T04:53:25.427Z,-2.01
2023-03-11T04:55:53.943Z,-2.02
2023-03-11T04:58:22.188Z,-2.09
2023-03-11T05:00:50.271Z,-2.09
2023-03-11T05:03:20.289Z,-2.11
2023-03-11T05:05:48.440Z,-2.13
2023-03-11T05:08:19.726Z,-2.17
2023-03-11T05:10:47.732Z,-2.16
2023-03-11T05:13:15.815Z,-2.16
2023-03-11T05:15:43.905Z,-2.19
2023-03-11T05:18:11.968Z,-2.13
2023-03-11T05:20:44.470Z,-2.17
2023-03-11T05:23:12.575Z,-2.15
2023-03-11T05:25:40.621Z,-2.15
2023-03-11T05:28:08.740Z,-2.18
2023-03-11T05:30:36.920Z,-2.22
2023-03-11T05:33:04.988Z,-2.25
2023-03-11T05:35:33.105Z,-2.31
2023-03-11T05:38:02.510Z,-2.31
2023-03-11T05:40:30.548Z,-2.32
2023-03-11T05:42:58.642Z,-2.28
2023-03-11T05:45:26.822Z,-2.30
2023-03-11T05:47:54.842Z,-2.27
2023-03-11T05:50:22.914Z,-2.31
2023-03-11T05:52:51.007Z,-2.37
2023-03-11T05:55:20.522Z,-2.35
2023-03-11T05:57:48.546Z,-2.42
2023-03-11T06:00:19.050Z,-2.49
2023-03-11T06:02:47.084Z,-2.52
2023-03-11T06:05:15.251Z,-2.55
2023-03-11T06:07:43.345Z,-2.52
2023-03-11T06:10:12.703Z,-2.52
2023-03-11T06:12:42.125Z,-2.57
2023-03-11T06:15:10.873Z,-2.58
2023-03-11T06:17:38.888Z,-2.60
2023-03-11T06:20:08.205Z,-2.56
2023-03-11T06:22:38.972Z,-2.56
2023-03-11T06:25:09.072Z,-2.59
2023-03-11T06:27:37.352Z,-2.60
2023-03-11T06:30:10.898Z,-2.62
2023-03-11T06:32:38.997Z,-2.57
2023-03-11T06:35:07.486Z,-2.58
2023-03-11T06:37:37.311Z,-2.57
2023-03-11T06:40:07.489Z,-2.57
2023-03-11T06:42:35.529Z,-2.53
2023-03-11T06:45:03.799Z,-2.54
2023-03-11T06:47:33.203Z,-2.53
2023-03-11T06:50:06.242Z,-2.55
2023-03-11T06:52:34.475Z,-2.55
2023-03-11T06:55:03.660Z,-2.50
2023-03-11T06:57:32.029Z,-2.45
2023-03-11T07:00:00.099Z,-2.31
2023-03-11T07:02:30.401Z,-2.29
2023-03-11T07:04:59.859Z,-2.18
2023-03-11T07:07:28.092Z,-2.12
2023-03-11T07:09:57.706Z,-2.10
2023-03-11T07:12:28.427Z,-2.07
2023-03-11T07:14:57.218Z,-2.04
2023-03-11T07:17:25.892Z,-1.94
2023-03-11T07:19:54.629Z,-1.89
2023-03-11T07:22:24.036Z,-1.81
2023-03-11T07:24:52.227Z,-1.59
2023-03-11T07:27:21.128Z,-1.47
2023-03-11T07:29:49.720Z,-1.33
2023-03-11T07:32:17.979Z,-1.04
2023-03-11T07:34:46.168Z,-0.80
2023-03-11T07:37:14.441Z,-0.49
2023-03-11T07:39:43.868Z,-0.28
2023-03-11T07:42:11.971Z,-0.03
2023-03-11T07:44:40.138Z,0.36
2023-03-11T07:47:10.658Z,0.40
2023-03-11T07:49:38.734Z,0.69
2023-03-11T07:52:07.670Z,0.76
2023-03-11T07:54:35.775Z,0.98
2023-03-11T07:57:09.256Z,1.14
2023-03-11T07:59:40.147Z,1.30
2023-03-11T08:02:11.944Z,1.47
2023-03-11T08:04:40.117Z,1.70
2023-03-11T08:07:08.147Z,1.93
2023-03-11T08:09:36.500Z,2.00
2023-03-11T08:12:04.767Z,2.12
2023-03-11T08:14:34.263Z,2.27
2023-03-11T08:17:02.351Z,2.18
2023-03-11T08:19:30.345Z,2.46
2023-03-11T08:21:58.379Z,2.52
2023-03-11T08:24:26.527Z,2.76
2023-03-11T08:26:55.549Z,2.76
2023-03-11T08:29:23.788Z,2.89
2023-03-11T08:31:53.267Z,2.96
2023-03-11T08:34:21.522Z,3.11
2023-03-11T08:36:49.691Z,3.21
2023-03-11T08:39:17.751Z,3.28
2023-03-11T08:41:45.827Z,3.41
2023-03-11T08:44:13.878Z,3.39
2023-03-11T08:46:42.175Z,3.66
2023-03-11T08:49:13.951Z,3.65
2023-03-11T08:51:42.654Z,3.64
2023-03-11T08:54:10.731Z,3.69
2023-03-11T08:56:38.808Z,3.87
2023-03-11T08:59:07.524Z,4.09
2023-03-11T09:01:35.602Z,3.97
2023-03-11T09:04:03.678Z,4.14
2023-03-11T09:06:33.084Z,4.06
2023-03-11T09:09:01.260Z,4.19
2023-03-11T09:11:29.685Z,4.18
2023-03-11T09:13:57.731Z,4.15
2023-03-11T09:16:26.372Z,4.23
2023-03-11T09:18:54.452Z,4.28
2023-03-11T09:21:23.036Z,4.30
2023-03-11T09:23:52.448Z,4.26
2023-03-11T09:26:20.529Z,4.38
2023-03-11T09:28:49.467Z,4.53
2023-03-11T09:31:18.486Z,4.62
2023-03-11T09:33:47.426Z,4.72
2023-03-11T09:36:17.068Z,4.79
2023-03-11T09:38:45.662Z,4.83
2023-03-11T09:41:27.372Z,4.94
2023-03-11T09:44:09.742Z,5.01
2023-03-11T09:47:12.181Z,4.92
2023-03-11T09:49:54.650Z,4.84
2023-03-11T09:52:31.532Z,4.93
2023-03-11T09:55:03.401Z,4.81
2023-03-11T09:57:35.573Z,4.84
2023-03-11T10:00:06.097Z,4.88
2023-03-11T10:02:38.748Z,4.96
2023-03-11T10:05:15.079Z,4.81
2023-03-11T10:07:48.291Z,4.85
2023-03-11T10:10:18.611Z,4.95
2023-03-11T10:12:56.409Z,5.23
2023-03-11T10:15:32.947Z,5.37
2023-03-11T10:18:10.653Z,5.57
2023-03-11T10:20:47.018Z,5.76
2023-03-11T10:23:25.745Z,6.02
2023-03-11T10:26:01.775Z,6.16
2023-03-11T10:28:37.086Z,6.21
2023-03-11T10:31:18.854Z,6.17
2023-03-11T10:33:51.348Z,6.24
2023-03-11T10:36:24.650Z,6.35
2023-03-11T10:38:54.665Z,6.40
2023-03-11T10:41:31.328Z,6.37
2023-03-11T10:44:06.561Z,6.34
2023-03-11T10:46:34.594Z,6.36
2023-03-11T10:49:02.676Z,6.31
2023-03-11T10:51:35.703Z,6.41
2023-03-11T10:54:04.816Z,6.60
2023-03-11T10:56:34.788Z,6.72
2023-03-11T10:59:05.910Z,6.64
2023-03-11T11:01:34.293Z,6.57
2023-03-11T11:04:04.277Z,6.82
2023-03-11T11:06:34.835Z,6.88
2023-03-11T11:09:16.891Z,7.03
2023-03-11T11:12:02.818Z,7.44
2023-03-11T11:14:46.508Z,7.55
2023-03-11T11:17:25.857Z,7.84
2023-03-11T11:19:56.910Z,7.91
2023-03-11T11:22:26.326Z,7.78
2023-03-11T11:24:56.691Z,8.06
2023-03-11T11:27:26.815Z,8.49
2023-03-11T11:30:16.683Z,8.71
2023-03-11T11:32:45.072Z,9.04
2023-03-11T11:35:15.435Z,9.32
2023-03-11T11:37:47.704Z,9.67
2023-03-11T11:40:26.163Z,9.88
2023-03-11T11:42:57.184Z,9.73
2023-03-11T11:45:35.512Z,10.07
2023-03-11T11:48:12.463Z,10.57
2023-03-11T11:50:45.238Z,10.70
2023-03-11T11:53:26.375Z,10.83
2023-03-11T11:55:55.027Z,11.00
2023-03-11T11:58:43.127Z,11.42
2023-03-11T12:01:20.413Z,11.38
2023-03-11T12:04:23.140Z,10.97
2023-03-11T12:07:13.111Z,11.25
2023-03-11T12:10:22.353Z,11.24
2023-03-11T12:13:40.510Z,10.92
2023-03-11T12:16:20.916Z,11.24
2023-03-11T12:18:55.535Z,11.79
2023-03-11T12:21:39.067Z,11.73
2023-03-11T12:24:23.876Z,11.39
2023-03-11T12:26:55.146Z,11.72
2023-03-11T12:29:27.606Z,12.17
2023-03-11T12:31:58.072Z,11.06
2023-03-11T12:34:26.642Z,11.77
2023-03-11T12:37:03.300Z,12.19
2023-03-11T12:39:33.741Z,12.48
2023-03-11T12:42:19.536Z,13.13
2023-03-11T12:44:49.116Z,13.06
2023-03-11T12:47:23.722Z,13.14
2023-03-11T12:49:54.838Z,13.26
2023-03-11T12:52:30.914Z,13.24
2023-03-11T12:55:32.438Z,12.19
2023-03-11T12:58:26.484Z,12.42
2023-03-11T13:01:11.980Z,12.38
2023-03-11T13:03:50.439Z,12.25
2023-03-11T13:06:39.989Z,12.62
2023-03-11T13:09:15.289Z,13.11
2023-03-11T13:11:45.985Z,13.32
2023-03-11T13:14:33.209Z,12.68
2023-03-11T13:17:26.015Z,12.30
2023-03-11T13:19:57.183Z,12.74
2023-03-11T13:22:45.503Z,12.77
2023-03-11T13:25:31.124Z,13.29
2023-03-11T13:28:15.654Z,13.08
2023-03-11T13:30:51.766Z,12.89
2023-03-11T13:33:30.497Z,13.21
2023-03-11T13:36:11.061Z,13.05
2023-03-11T13:39:02.054Z,13.05
2023-03-11T13:41:34.011Z,13.18
2023-03-11T13:44:13.281Z,13.16
2023-03-11T13:46:49.695Z,12.84
2023-03-11T13:49:28.608Z,12.29
2023-03-11T13:51:59.485Z,12.33
2023-03-11T13:54:36.066Z,12.38
2023-03-11T13:57:04.696Z,11.21
2023-03-11T13:59:34.942Z,11.45
2023-03-11T14:02:15.158Z,11.46
2023-03-11T14:04:50.018Z,11.36
2023-03-11T14:07:26.769Z,11.66
2023-03-11T14:10:27.003Z,11.46
2023-03-11T14:13:07.969Z,11.52
2023-03-11T14:15:45.684Z,11.41
2023-03-11T14:18:35.528Z,11.29
2023-03-11T14:21:05.566Z,10.95
2023-03-11T14:23:44.445Z,10.81
2023-03-11T14:26:16.518Z,10.77
2023-03-11T14:28:47.687Z,9.98
2023-03-11T14:31:31.246Z,10.03
2023-03-11T14:34:04.445Z,9.79
2023-03-11T14:36:42.225Z,9.96
2023-03-11T14:39:30.545Z,9.98
2023-03-11T14:42:05.288Z,9.89
2023-03-11T14:44:36.531Z,9.55
2023-03-11T14:47:10.778Z,9.71
2023-03-11T14:49:40.580Z,9.90
2023-03-11T14:52:15.301Z,9.46
2023-03-11T14:54:46.225Z,9.40
2023-03-11T14:57:20.710Z,9.48
2023-03-11T14:59:51.873Z,9.30
2023-03-11T15:02:38.675Z,9.33
2023-03-11T15:05:15.527Z,9.10
2023-03-11T15:07:45.045Z,8.98
2023-03-11T15:10:17.526Z,9.00
2023-03-11T15:12:46.050Z,8.98
2023-03-11T15:15:28.901Z,8.87
2023-03-11T15:17:57.562Z,8.79
2023-03-11T15:20:28.413Z,8.57
2023-03-11T15:23:01.530Z,8.51
2023-03-11T15:25:34.494Z,8.25
2023-03-11T15:28:21.258Z,8.25
2023-03-11T15:30:49.410Z,8.19
2023-03-11T15:33:25.106Z,8.20
2023-03-11T15:35:53.435Z,7.95
2023-03-11T15:38:25.587Z,7.54
2023-03-11T15:40:58.268Z,7.71
2023-03-11T15:43:29.268Z,7.74
2023-03-11T15:45:58.746Z,7.52
2023-03-11T15:48:28.006Z,7.68
2023-03-11T15:50:58.407Z,7.57
2023-03-11T15:53:28.744Z,7.10
2023-03-11T15:56:06.953Z,7.26
2023-03-11T15:58:37.494Z,7.31
2023-03-11T16:01:05.777Z,7.05
2023-03-11T16:03:34.009Z,7.10
2023-03-11T16:06:02.178Z,7.11
2023-03-11T16:08:30.332Z,7.21
2023-03-11T16:10:59.997Z,7.13
2023-03-11T16:13:28.548Z,7.08
2023-03-11T16:15:56.660Z,6.89
2023-03-11T16:18:24.730Z,6.93
2023-03-11T16:20:55.253Z,6.89
2023-03-11T16:23:26.686Z,6.89
2023-03-11T16:25:59.702Z,6.79
2023-03-11T16:28:29.668Z,6.64
2023-03-11T16:30:58.134Z,6.60
2023-03-11T16:33:26.345Z,6.54
2023-03-11T16:35:54.456Z,6.52
2023-03-11T16:38:23.258Z,6.43
2023-03-11T16:40:57.955Z,6.38
2023-03-11T16:43:26.407Z,6.20
2023-03-11T16:45:56.100Z,6.17
2023-03-11T16:48:24.642Z,6.03
2023-03-11T16:50:52.756Z,6.06
2023-03-11T16:53:21.984Z,5.91
2023-03-11T16:55:50.085Z,5.85
2023-03-11T16:58:18.228Z,5.83
2023-03-11T17:00:46.949Z,5.76
2023-03-11T17:03:21.375Z,5.63
2023-03-11T17:05:50.440Z,5.59
2023-03-11T17:08:18.894Z,5.53
2023-03-11T17:10:47.406Z,5.46
2023-03-11T17:13:19.201Z,5.36
2023-03-11T17:15:57.435Z,5.23
2023-03-11T17:18:27.281Z,5.15
2023-03-11T17:20:55.448Z,4.94
2023-03-11T17:23:23.503Z,4.85
2023-03-11T17:25:51.880Z,4.72
2023-03-11T17:28:20.058Z,4.72
2023-03-11T17:30:48.131Z,4.45
2023-03-11T17:33:16.159Z,4.35
2023-03-11T17:35:48.354Z,4.16
2023-03-11T17:38:19.201Z,4.05
2023-03-11T17:40:47.254Z,3.98
2023-03-11T17:43:15.398Z,3.76
2023-03-11T17:45:43.466Z,3.72
2023-03-11T17:48:11.569Z,3.68
2023-03-11T17:50:40.019Z,3.71
2023-03-11T17:53:12.311Z,3.68
2023-03-11T17:55:41.725Z,3.62
2023-03-11T17:58:09.999Z,3.55
2023-03-11T18:00:38.940Z,3.49
2023-03-11T18:03:07.079Z,3.42
2023-03-11T18:05:36.861Z,3.32
2023-03-11T18:08:05.145Z,3.20
2023-03-11T18:10:34.606Z,3.15
2023-03-11T18:13:02.705Z,3.03
2023-03-11T18:15:30.843Z,2.94
2023-03-11T18:17:58.944Z,2.95
2023-03-11T18:20:27.349Z,2.82
2023-03-11T18:22:56.071Z,2.69
2023-03-11T18:25:24.236Z,2.59
2023-03-11T18:27:56.577Z,2.52
2023-03-11T18:30:24.794Z,2.51
2023-03-11T18:32:52.902Z,2.39
2023-03-11T18:35:22.301Z,2.22
2023-03-11T18:37:50.312Z,2.20
2023-03-11T18:40:18.986Z,2.13
2023-03-11T18:42:47.198Z,2.07
2023-03-11T18:45:16.974Z,1.97
2023-03-11T18:47:45.142Z,1.91
2023-03-11T18:50:13.793Z,1.84
2023-03-11T18:52:41.905Z,1.85
2023-03-11T18:55:10.416Z,1.78
2023-03-11T18:57:40.464Z,1.67
2023-03-11T19:00:09.942Z,1.61
2023-03-11T19:02:39.587Z,1.62
2023-03-11T19:05:08.608Z,1.59
2023-03-11T19:07:36.658Z,1.57
2023-03-11T19:10:05.126Z,1.52
2023-03-11T19:12:34.381Z,1.52
2023-03-11T19:15:02.458Z,1.49
2023-03-11T19:17:30.666Z,1.42
2023-03-11T19:20:00.183Z,1.42
2023-03-11T19:22:30.573Z,1.42
2023-03-11T19:24:58.654Z,1.43
2023-03-11T19:27:26.815Z,1.42
2023-03-11T19:29:54.892Z,1.41
2023-03-11T19:32:23.026Z,1.35
2023-03-11T19:34:51.229Z,1.27
2023-03-11T19:37:20.664Z,1.29
2023-03-11T19:39:48.711Z,1.33
2023-03-11T19:42:16.754Z,1.31
2023-03-11T19:44:44.900Z,1.23
2023-03-11T19:47:13.062Z,1.22
2023-03-11T19:49:41.184Z,1.22
2023-03-11T19:52:09.980Z,1.21
2023-03-11T19:54:39.610Z,1.07
2023-03-11T19:57:07.738Z,1.14
2023-03-11T19:59:38.531Z,1.03
2023-03-11T20:02:07.265Z,1.05
2023-03-11T20:04:35.530Z,1.00
2023-03-11T20:07:03.648Z,1.04
2023-03-11T20:09:33.412Z,1.08
2023-03-11T20:12:02.923Z,1.03
2023-03-11T20:14:31.057Z,0.92
2023-03-11T20:16:59.268Z,0.93
2023-03-11T20:19:27.538Z,0.88
2023-03-11T20:21:55.793Z,0.85
2023-03-11T20:24:23.907Z,0.85
2023-03-11T20:26:52.044Z,0.81
2023-03-11T20:29:21.796Z,0.80
2023-03-11T20:31:51.755Z,0.74
2023-03-11T20:34:19.916Z,0.66
2023-03-11T20:36:48.524Z,0.66
2023-03-11T20:39:16.620Z,0.61
2023-03-11T20:41:44.876Z,0.57
2023-03-11T20:44:14.552Z,0.56
2023-03-11T20:46:44.241Z,0.55
2023-03-11T20:49:12.582Z,0.49
2023-03-11T20:51:41.916Z,0.47
2023-03-11T20:54:11.953Z,0.39
2023-03-11T20:56:40.229Z,0.41
2023-03-11T20:59:08.344Z,0.32
2023-03-11T21:01:36.751Z,0.26
2023-03-11T21:04:07.030Z,0.24
2023-03-11T21:06:36.708Z,0.15
2023-03-11T21:09:07.449Z,0.07
2023-03-11T21:11:38.675Z,0.06
2023-03-11T21:14:07.986Z,0.06
2023-03-11T21:16:37.204Z,0.00
2023-03-11T21:19:08.826Z,-0.10
2023-03-11T21:21:37.725Z,-0.05
2023-03-11T21:24:06.782Z,-0.04
2023-03-11T21:26:34.960Z,-0.05
2023-03-11T21:29:04.974Z,-0.05
2023-03-11T21:31:33.644Z,-0.06
2023-03-11T21:34:04.476Z,-0.07
2023-03-11T21:36:34.072Z,-0.09
2023-03-11T21:39:03.709Z,0.00
2023-03-11T21:41:32.414Z,-0.06
2023-03-11T21:44:00.886Z,-0.08
2023-03-11T21:46:31.413Z,-0.08
2023-03-11T21:49:02.933Z,-0.06
2023-03-11T21:51:31.367Z,-0.09
2023-03-11T21:54:01.115Z,-0.14
2023-03-11T21:56:30.071Z,-0.11
2023-03-11T21:58:58.347Z,-0.14
2023-03-11T22:01:26.694Z,-0.13
2023-03-11T22:03:55.375Z,-0.09
2023-03-11T22:06:24.189Z,-0.08
2023-03-11T22:08:52.510Z,-0.12
2023-03-11T22:11:22.095Z,-0.10
2023-03-11T22:13:52.480Z,-0.09
2023-03-11T22:16:21.827Z,-0.06
2023-03-11T22:18:50.211Z,-0.04
2023-03-11T22:21:20.679Z,0.01
2023-03-11T22:23:49.174Z,0.00
2023-03-11T22:26:17.349Z,-0.05
2023-03-11T22:28:46.799Z,-0.03
2023-03-11T22:31:18.576Z,-0.03
2023-03-11T22:33:46.979Z,0.02
2023-03-11T22:36:18.120Z,0.02
2023-03-11T22:38:46.222Z,-0.03
2023-03-11T22:41:16.873Z,-0.08
2023-03-11T22:43:46.968Z,-0.10
2023-03-11T22:46:15.512Z,-0.11
2023-03-11T22:48:46.279Z,-0.06
2023-03-11T22:51:14.903Z,-0.09
2023-03-11T22:53:42.980Z,-0.02
2023-03-11T22:56:13.513Z,-0.07
2023-03-11T22:58:42.229Z,-0.03
2023-03-11T23:01:12.415Z,-0.08
2023-03-11T23:03:41.033Z,-0.03
2023-03-11T23:06:10.425Z,-0.11
2023-03-11T23:08:38.685Z,-0.11
2023-03-11T23:11:09.636Z,-0.12
2023-03-11T23:13:38.477Z,-0.13
2023-03-11T23:16:08.397Z,-0.12
2023-03-11T23:18:40.970Z,-0.15
2023-03-11T23:21:15.840Z,-0.20
2023-03-11T23:23:46.806Z,-0.19
2023-03-11T23:26:16.295Z,-0.25
2023-03-11T23:28:45.126Z,-0.27
2023-03-11T23:31:16.475Z,-0.25
2023-03-11T23:33:48.395Z,-0.25
2023-03-11T23:36:18.698Z,-0.22
2023-03-11T23:38:47.853Z,-0.23
2023-03-11T23:41:19.088Z,-0.28
2023-03-11T23:43:47.628Z,-0.27
2023-03-11T23:46:16.076Z,-0.25
2023-03-11T23:48:44.416Z,-0.30
2023-03-11T23:51:16.602Z,-0.29
2023-03-11T23:53:44.657Z,-0.26
2023-03-11T23:56:16.987Z,-0.28
2023-03-11T23:58:45.762Z,-0.26
